Time;durP1;ratioP1;P1;durP2;ratioP2;P2;SDS_P1;SDS_P2;PMS_P1;PMS_P2;Temp;Humidity;BMP_temperature;BMP_pressure;BME280_temperature;BME280_humidity;BME280_pressure;Samples;Min_cycle;Max_cycle;Signal;HPM_P1;HPM_P2
2023/10/09 00:01:31;;;;;;;13.38;5.80;;;13.60;98.30;;;;;;5082959;28;20192;-83
2023/10/09 00:04:01;;;;;;;13.43;5.50;;;13.50;98.60;;;;;;5097408;28;20648;-83
2023/10/09 00:06:37;;;;;;;19.92;5.97;;;13.50;98.70;;;;;;5078193;28;20209;-83
2023/10/09 00:09:17;;;;;;;14.38;5.90;;;13.50;98.70;;;;;;5089621;28;20208;-84
2023/10/09 00:11:44;;;;;;;18.83;5.55;;;13.50;98.70;;;;;;5087440;28;20660;-84
2023/10/09 00:14:15;;;;;;;15.63;5.75;;;13.50;98.60;;;;;;5082886;28;20255;-83
2023/10/09 00:16:47;;;;;;;22.27;5.60;;;13.60;98.60;;;;;;5085454;28;20209;-83
2023/10/09 00:19:18;;;;;;;14.93;5.70;;;13.70;98.50;;;;;;5089351;28;20221;-83
2023/10/09 00:21:45;;;;;;;14.43;5.93;;;13.70;98.30;;;;;;5079541;28;20205;-83
2023/10/09 00:24:23;;;;;;;17.52;5.50;;;13.70;98.30;;;;;;5095220;28;20197;-84
2023/10/09 00:26:51;;;;;;;12.52;4.75;;;13.70;98.40;;;;;;5091135;28;20192;-83
2023/10/09 00:29:22;;;;;;;14.15;5.38;;;13.70;98.60;;;;;;5085626;28;20192;-84
2023/10/09 00:31:55;;;;;;;18.30;5.72;;;13.70;98.20;;;;;;5083877;28;20601;-83
2023/10/09 00:34:26;;;;;;;14.00;5.65;;;13.70;98.20;;;;;;5090903;28;20204;-83
2023/10/09 00:36:53;;;;;;;11.95;5.22;;;13.70;98.40;;;;;;5088647;28;20196;-83
2023/10/09 00:42:06;;;;;;;18.45;5.63;;;13.60;98.50;;;;;;5075079;28;20192;-83
2023/10/09 00:44:38;;;;;;;15.80;5.78;;;13.60;98.60;;;;;;5080929;28;20814;-83
2023/10/09 00:47:20;;;;;;;15.18;5.95;;;13.60;98.60;;;;;;5090730;28;20189;-84
2023/10/09 00:49:49;;;;;;;13.43;5.47;;;13.60;98.60;;;;;;5094244;28;20606;-84
2023/10/09 00:52:26;;;;;;;19.10;5.93;;;13.60;98.70;;;;;;5089049;28;20339;-84
2023/10/09 00:55:00;;;;;;;19.90;6.15;;;13.60;98.60;;;;;;5086960;28;20200;-84
2023/10/09 00:57:31;;;;;;;18.88;5.78;;;13.70;98.50;;;;;;5092244;28;20200;-84
2023/10/09 01:00:14;;;;;;;16.55;5.57;;;13.70;98.40;;;;;;5087675;28;20228;-83
2023/10/09 01:02:44;;;;;;;16.42;5.70;;;13.70;98.30;;;;;;5086912;28;20586;-84
2023/10/09 01:05:19;;;;;;;12.75;5.63;;;13.70;98.40;;;;;;5090085;28;20205;-83
2023/10/09 01:07:47;;;;;;;15.60;5.25;;;13.70;98.50;;;;;;5093520;28;20663;-83
2023/10/09 01:10:16;;;;;;;19.02;5.65;;;13.70;98.50;;;;;;5074491;28;20197;-83
2023/10/09 01:12:44;;;;;;;14.27;5.20;;;13.70;98.50;;;;;;5084973;28;20667;-84
2023/10/09 01:15:35;;;;;;;14.60;5.70;;;13.60;98.50;;;;;;5088354;28;20222;-83
2023/10/09 01:18:07;;;;;;;12.90;5.25;;;13.70;98.60;;;;;;5089051;28;20200;-83
2023/10/09 01:20:41;;;;;;;13.77;5.40;;;13.70;99.00;;;;;;5078053;28;20223;-83
2023/10/09 01:23:11;;;;;;;13.98;5.00;;;13.70;98.60;;;;;;5086155;28;20204;-84
2023/10/09 01:25:44;;;;;;;11.93;5.15;;;13.70;98.60;;;;;;5083782;28;20202;-83
2023/10/09 01:28:15;;;;;;;13.52;5.15;;;13.60;98.60;;;;;;5085603;28;20231;-83
2023/10/09 01:30:44;;;;;;;14.85;5.65;;;13.60;98.60;;;;;;5089480;28;20196;-83
2023/10/09 01:33:22;;;;;;;14.18;6.00;;;13.70;98.70;;;;;;5090894;28;20239;-84
2023/10/09 01:35:52;;;;;;;15.10;5.40;;;13.70;98.60;;;;;;5089806;28;20200;-83
2023/10/09 01:38:30;;;;;;;13.70;5.20;;;13.70;98.60;;;;;;5088771;28;20201;-83
2023/10/09 01:41:06;;;;;;;13.93;4.85;;;13.70;98.50;;;;;;5088294;28;20220;-83
2023/10/09 01:43:34;;;;;;;19.13;5.05;;;13.80;98.50;;;;;;5089035;28;20245;-83
2023/10/09 01:46:04;;;;;;;18.95;5.57;;;13.80;98.50;;;;;;5080376;28;20828;-83
2023/10/09 01:48:35;;;;;;;15.07;4.95;;;13.80;98.40;;;;;;5089275;28;20205;-83
2023/10/09 01:51:05;;;;;;;18.02;5.45;;;13.80;98.20;;;;;;5086338;28;20235;-83
2023/10/09 01:53:33;;;;;;;16.48;5.30;;;13.80;98.20;;;;;;5078432;28;20207;-83
2023/10/09 01:56:14;;;;;;;17.70;5.45;;;13.80;98.10;;;;;;5081531;28;20327;-84
2023/10/09 01:58:45;;;;;;;14.82;5.13;;;13.80;97.70;;;;;;5083247;28;20192;-83
2023/10/09 02:01:13;;;;;;;16.52;5.18;;;13.80;97.60;;;;;;5089629;28;20225;-83
2023/10/09 02:03:42;;;;;;;13.68;4.72;;;13.80;97.70;;;;;;5084975;28;20288;-83
2023/10/09 02:06:24;;;;;;;19.20;5.32;;;13.80;97.80;;;;;;5089142;28;20661;-83
2023/10/09 02:08:54;;;;;;;13.57;5.10;;;13.80;97.90;;;;;;5082703;28;20284;-83
2023/10/09 02:11:36;;;;;;;15.45;5.30;;;13.80;98.10;;;;;;5081224;28;20197;-83
2023/10/09 02:14:15;;;;;;;17.40;6.03;;;13.80;98.10;;;;;;5087759;28;20212;-83
2023/10/09 02:16:43;;;;;;;15.48;5.47;;;13.80;98.20;;;;;;5083133;28;20196;-83
2023/10/09 02:19:28;;;;;;;12.43;5.22;;;13.70;98.20;;;;;;5086098;28;20201;-83
2023/10/09 02:21:56;;;;;;;12.70;4.57;;;13.70;98.30;;;;;;5085098;28;20228;-83
2023/10/09 02:24:41;;;;;;;20.73;5.80;;;13.70;98.30;;;;;;5092065;28;20208;-83
2023/10/09 02:27:11;;;;;;;22.38;4.82;;;13.70;98.30;;;;;;5085422;28;20201;-83
2023/10/09 02:29:38;;;;;;;17.80;5.55;;;13.80;98.10;;;;;;5091954;28;20201;-84
2023/10/09 02:32:17;;;;;;;16.60;5.20;;;13.80;98.00;;;;;;5087798;28;20197;-83
2023/10/09 02:34:46;;;;;;;16.80;4.85;;;13.80;97.60;;;;;;5088324;28;20204;-83
2023/10/09 02:37:14;;;;;;;15.52;5.10;;;13.80;97.50;;;;;;5082086;28;20197;-83
2023/10/09 02:39:48;;;;;;;16.35;5.03;;;13.80;97.50;;;;;;5083846;28;20266;-84
2023/10/09 02:42:23;;;;;;;19.48;5.60;;;13.70;97.60;;;;;;5086057;28;20207;-83
2023/10/09 02:44:51;;;;;;;18.10;5.30;;;13.70;97.70;;;;;;5087537;28;20238;-83
2023/10/09 02:47:20;;;;;;;12.63;5.00;;;13.60;97.80;;;;;;5089741;28;20231;-83
2023/10/09 02:49:49;;;;;;;16.15;4.65;;;13.60;97.90;;;;;;5083424;28;20251;-83
2023/10/09 02:52:18;;;;;;;13.25;4.72;;;13.60;98.00;;;;;;5096832;28;20215;-83
2023/10/09 02:54:47;;;;;;;10.70;4.30;;;13.50;98.00;;;;;;5084597;28;20278;-83
2023/10/09 02:57:21;;;;;;;14.25;4.72;;;13.50;98.30;;;;;;5092584;28;20200;-84
2023/10/09 02:59:51;;;;;;;16.38;5.05;;;13.40;98.20;;;;;;5099393;28;20297;-83
2023/10/09 03:02:18;;;;;;;19.15;5.45;;;13.40;98.30;;;;;;5091912;28;20618;-83
2023/10/09 03:04:46;;;;;;;17.08;4.93;;;13.30;98.30;;;;;;5086261;28;20253;-83
2023/10/09 03:07:13;;;;;;;15.75;4.95;;;13.30;98.40;;;;;;5081323;28;20211;-83
2023/10/09 03:09:41;;;;;;;13.80;4.80;;;13.30;98.50;;;;;;5101251;28;20188;-83
2023/10/09 03:12:13;;;;;;;18.58;5.38;;;13.30;98.50;;;;;;5084755;28;20255;-83
2023/10/09 03:14:41;;;;;;;16.35;4.60;;;13.30;98.40;;;;;;5079478;28;20207;-83
2023/10/09 03:17:11;;;;;;;15.63;5.05;;;13.30;98.30;;;;;;5080059;28;20284;-83
2023/10/09 03:19:38;;;;;;;19.05;5.32;;;13.30;98.20;;;;;;5096734;28;20222;-83
2023/10/09 03:22:09;;;;;;;19.73;5.13;;;13.30;98.20;;;;;;5085168;28;20274;-83
2023/10/09 03:24:36;;;;;;;11.90;4.20;;;13.20;98.30;;;;;;5081105;28;20200;-83
2023/10/09 03:27:03;;;;;;;20.38;4.93;;;13.20;98.20;;;;;;5087037;28;20323;-83
2023/10/09 03:29:33;;;;;;;17.58;4.57;;;13.20;98.10;;;;;;5090197;28;20266;-83
2023/10/09 03:32:00;;;;;;;13.93;4.97;;;13.20;97.90;;;;;;5091492;28;20278;-83
2023/10/09 03:34:27;;;;;;;14.15;5.07;;;13.30;97.80;;;;;;5088265;28;20200;-83
2023/10/09 03:37:03;;;;;;;14.77;4.53;;;13.30;97.60;;;;;;5095812;28;20200;-83
2023/10/09 03:39:41;;;;;;;15.27;4.68;;;13.30;97.60;;;;;;5091956;28;20562;-83
2023/10/09 03:42:15;;;;;;;14.70;4.57;;;13.30;97.50;;;;;;5084312;28;20219;-83
2023/10/09 03:44:49;;;;;;;19.23;5.30;;;13.30;97.50;;;;;;5090881;28;20220;-83
2023/10/09 03:47:16;;;;;;;14.07;4.78;;;13.30;97.40;;;;;;5107014;28;20196;-84
2023/10/09 03:49:43;;;;;;;10.32;4.50;;;13.30;97.50;;;;;;5086792;28;20201;-83
2023/10/09 03:52:17;;;;;;;14.88;4.72;;;13.30;97.50;;;;;;5083694;28;20269;-83
2023/10/09 03:54:46;;;;;;;14.73;5.22;;;13.30;97.50;;;;;;5084496;28;20751;-83
2023/10/09 03:57:14;;;;;;;21.08;4.85;;;13.30;97.40;;;;;;5075932;28;20708;-83
2023/10/09 03:59:42;;;;;;;12.93;4.03;;;13.30;97.00;;;;;;5076884;28;20255;-83
2023/10/09 04:02:12;;;;;;;17.80;5.00;;;13.40;96.50;;;;;;5081427;28;20262;-83
2023/10/09 04:04:39;;;;;;;18.42;4.55;;;13.40;96.50;;;;;;5092964;28;20219;-84
2023/10/09 04:07:06;;;;;;;19.33;4.53;;;13.40;96.50;;;;;;5083976;28;20188;-83
2023/10/09 04:09:39;;;;;;;16.73;4.32;;;13.40;96.50;;;;;;5087816;28;20556;-83
2023/10/09 04:12:24;;;;;;;13.90;4.07;;;13.40;96.50;;;;;;5083190;28;20200;-83
2023/10/09 04:14:54;;;;;;;16.98;5.13;;;13.40;96.50;;;;;;5081135;28;20778;-83
2023/10/09 04:17:35;;;;;;;14.35;4.35;;;13.50;96.10;;;;;;5085924;28;20200;-83
2023/10/09 04:20:50;;;;;;;17.27;4.63;;;13.50;95.90;;;;;;5080740;28;20292;-83
2023/10/09 04:23:16;;;;;;;14.43;4.43;;;13.50;96.00;;;;;;5085981;28;20197;-83
2023/10/09 04:25:45;;;;;;;15.63;4.22;;;13.40;95.90;;;;;;5084680;28;20208;-86
2023/10/09 04:28:18;;;;;;;16.35;4.28;;;13.40;96.00;;;;;;5080090;28;20645;-85
2023/10/09 04:30:53;;;;;;;14.93;4.70;;;13.50;96.10;;;;;;5091129;28;20304;-86
2023/10/09 04:33:40;;;;;;;15.48;5.03;;;13.50;95.90;;;;;;5085553;28;20660;-85
2023/10/09 04:36:28;;;;;;;13.30;4.18;;;13.50;95.80;;;;;;5077086;28;20246;-86
2023/10/09 04:39:15;;;;;;;17.30;5.05;;;13.40;95.90;;;;;;5086364;28;20193;-88
2023/10/09 04:42:18;;;;;;;22.70;4.15;;;13.40;96.00;;;;;;5088766;28;20205;-84
2023/10/09 04:44:59;;;;;;;16.08;4.57;;;13.40;96.10;;;;;;5086965;28;20193;-84
2023/10/09 04:47:35;;;;;;;15.38;4.53;;;13.30;96.50;;;;;;5089710;28;20200;-84
2023/10/09 04:50:11;;;;;;;16.40;4.63;;;13.30;96.50;;;;;;5088842;28;20192;-87
2023/10/09 04:52:52;;;;;;;13.20;3.95;;;13.30;96.50;;;;;;5083918;28;20228;-87
2023/10/09 04:55:24;;;;;;;15.95;5.03;;;13.30;96.50;;;;;;5082674;28;20204;-85
2023/10/09 04:58:02;;;;;;;13.82;4.28;;;13.30;96.50;;;;;;5087059;28;20232;-83
2023/10/09 05:03:25;;;;;;;17.67;5.07;;;13.30;96.50;;;;;;5094450;28;20199;-84
2023/10/09 05:05:59;;;;;;;16.70;5.00;;;13.30;96.50;;;;;;5090075;28;20208;-84
2023/10/09 05:08:29;;;;;;;12.10;4.57;;;13.30;96.50;;;;;;5095120;28;20220;-84
2023/10/09 05:11:15;;;;;;;17.65;5.35;;;13.30;96.50;;;;;;5089474;28;20929;-84
2023/10/09 05:13:57;;;;;;;19.23;4.60;;;13.30;96.50;;;;;;5100385;28;20305;-84
2023/10/09 05:16:25;;;;;;;14.75;4.95;;;13.30;96.50;;;;;;5088974;28;20193;-84
2023/10/09 05:18:56;;;;;;;15.68;4.78;;;13.30;96.30;;;;;;5090990;28;20197;-84
2023/10/09 05:27:12;;;;;;;15.95;4.68;;;13.30;96.10;;;;;;5075709;28;20235;-84
2023/10/09 05:29:48;;;;;;;12.90;4.65;;;13.30;95.90;;;;;;5083849;28;20276;-84
2023/10/09 05:32:27;;;;;;;17.88;4.90;;;13.40;95.90;;;;;;5085135;28;20225;-84
2023/10/09 05:35:15;;;;;;;18.25;5.35;;;13.40;95.80;;;;;;5078141;28;20188;-84
2023/10/09 05:37:46;;;;;;;20.63;5.20;;;13.40;95.70;;;;;;5084511;28;20215;-84
2023/10/09 05:40:23;;;;;;;16.02;4.40;;;13.40;95.70;;;;;;5091438;28;20288;-84
2023/10/09 05:42:59;;;;;;;16.98;4.65;;;13.40;95.80;;;;;;5086685;28;20247;-84
2023/10/09 05:51:41;;;;;;;13.07;4.43;;;13.40;95.60;;;;;;5085700;28;20748;-84
2023/10/09 06:08:07;;;;;;;22.83;5.35;;;13.80;94.80;;;;;;5084826;28;20649;-84
2023/10/09 06:10:40;;;;;;;19.20;4.80;;;13.70;94.90;;;;;;5089076;28;20212;-85
2023/10/09 06:13:37;;;;;;;18.65;4.70;;;13.70;95.20;;;;;;5089321;28;20292;-86
2023/10/09 06:16:19;;;;;;;21.23;5.45;;;13.60;95.70;;;;;;5075252;28;20254;-85
2023/10/09 06:18:54;;;;;;;17.52;5.18;;;13.60;96.10;;;;;;5084396;28;20212;-87
2023/10/09 06:22:10;;;;;;;14.60;5.78;;;13.60;96.60;;;;;;5114339;27;20220;-87
2023/10/09 06:24:33;;;;;;;16.67;4.47;;;13.80;96.60;;;;;;5083385;28;20258;-86
2023/10/09 06:27:13;;;;;;;14.27;4.97;;;14.20;94.80;;;;;;5076331;28;20197;-86
2023/10/09 06:29:50;;;;;;;14.13;5.28;;;14.40;94.50;;;;;;5089260;28;20193;-86
2023/10/09 06:32:37;;;;;;;15.65;4.97;;;14.40;94.50;;;;;;5077473;28;20197;-86
2023/10/09 06:35:21;;;;;;;19.75;4.97;;;14.60;94.00;;;;;;5072625;28;20677;-87
2023/10/09 06:43:29;;;;;;;14.25;5.22;;;14.90;93.60;;;;;;5092010;28;20258;-86
2023/10/09 06:46:17;;;;;;;18.10;5.28;;;15.00;93.90;;;;;;5087805;28;20193;-86
2023/10/09 06:48:55;;;;;;;14.88;5.03;;;15.10;93.70;;;;;;5085382;28;20205;-87
2023/10/09 06:51:40;;;;;;;13.07;4.30;;;15.20;94.20;;;;;;5086321;28;20236;-86
2023/10/09 06:54:17;;;;;;;13.20;4.57;;;15.30;94.00;;;;;;5080879;28;20200;-86
2023/10/09 06:59:43;;;;;;;14.35;4.82;;;15.40;93.20;;;;;;5091362;28;20211;-87
2023/10/09 07:02:25;;;;;;;11.95;4.45;;;15.50;93.60;;;;;;5085068;28;20300;-86
2023/10/09 07:04:55;;;;;;;15.43;5.18;;;15.60;93.30;;;;;;5086315;28;20197;-87
2023/10/09 07:07:24;;;;;;;17.80;5.05;;;15.80;91.80;;;;;;5088984;28;20197;-87
2023/10/09 07:12:43;;;;;;;13.15;4.90;;;16.00;91.70;;;;;;5094699;28;20223;-87
2023/10/09 07:18:18;;;;;;;11.50;4.22;;;16.20;91.40;;;;;;5094021;28;20199;-86
2023/10/09 07:20:58;;;;;;;14.38;4.78;;;16.30;91.30;;;;;;5082596;28;20228;-85
2023/10/09 07:23:28;;;;;;;13.48;4.20;;;16.40;90.70;;;;;;5086114;28;20192;-86
2023/10/09 07:26:17;;;;;;;14.93;4.57;;;16.50;89.90;;;;;;5075307;28;20193;-87
2023/10/09 07:28:48;;;;;;;14.82;4.60;;;16.60;89.20;;;;;;5084982;28;20667;-87
2023/10/09 07:31:39;;;;;;;13.05;4.78;;;16.60;88.50;;;;;;5080701;28;20726;-90
2023/10/09 07:34:30;;;;;;;11.57;4.15;;;16.60;88.00;;;;;;5086811;28;20204;-85
2023/10/09 07:36:56;;;;;;;14.48;4.47;;;16.60;87.90;;;;;;5087248;28;20276;-86
2023/10/09 07:39:23;;;;;;;13.52;4.70;;;16.60;87.10;;;;;;5090907;28;20196;-89
2023/10/09 07:44:37;;;;;;;12.38;4.07;;;16.80;85.60;;;;;;5082676;28;20197;-86
2023/10/09 07:47:17;;;;;;;15.23;4.43;;;17.00;84.30;;;;;;5086503;28;20193;-87
2023/10/09 07:49:48;;;;;;;14.32;4.22;;;17.40;79.00;;;;;;5083734;28;20208;-87
2023/10/09 07:52:15;;;;;;;15.75;4.65;;;17.80;73.30;;;;;;5091209;28;20227;-87
2023/10/09 07:54:49;;;;;;;20.00;4.28;;;18.20;61.30;;;;;;5085732;28;20205;-87
2023/10/09 07:57:17;;;;;;;21.02;5.35;;;18.70;50.30;;;;;;5084803;28;20195;-87
2023/10/09 08:00:00;;;;;;;13.93;3.80;;;19.00;50.50;;;;;;5088116;28;20201;-87
2023/10/09 08:02:36;;;;;;;19.20;4.82;;;19.30;43.10;;;;;;5083790;28;20210;-87
2023/10/09 08:05:18;;;;;;;12.82;4.05;;;19.40;41.20;;;;;;5090209;28;20224;-87
2023/10/09 08:07:57;;;;;;;17.90;4.50;;;19.60;39.80;;;;;;5074186;28;20254;-88
2023/10/09 08:16:04;;;;;;;14.88;4.20;;;20.00;34.10;;;;;;5082741;28;20555;-87
2023/10/09 08:18:44;;;;;;;21.67;4.40;;;20.20;32.20;;;;;;5087505;28;20291;-88
2023/10/09 08:21:41;;;;;;;23.55;4.35;;;20.30;32.30;;;;;;5089165;28;20220;-86
2023/10/09 08:24:35;;;;;;;17.50;4.65;;;20.50;31.80;;;;;;5090653;28;20649;-87
2023/10/09 08:27:28;;;;;;;15.73;4.60;;;20.50;29.90;;;;;;5093140;28;20297;-86
2023/10/09 08:29:46;;;;;;;17.05;5.78;;;20.60;29.60;;;;;;5082629;28;20689;-85
2023/10/09 08:32:38;;;;;;;21.95;4.03;;;20.70;29.90;;;;;;5093465;28;20286;-86
2023/10/09 08:35:19;;;;;;;10.75;4.15;;;20.80;29.00;;;;;;5083858;28;20638;-85
2023/10/09 08:37:48;;;;;;;15.52;4.38;;;21.00;28.70;;;;;;5084875;28;20287;-85
2023/10/09 08:40:18;;;;;;;18.00;4.85;;;21.00;26.60;;;;;;5091440;28;20246;-85
2023/10/09 08:42:49;;;;;;;12.40;3.95;;;21.20;26.40;;;;;;5089460;28;20308;-85
2023/10/09 08:45:24;;;;;;;14.65;3.97;;;21.40;25.90;;;;;;5083116;28;20202;-86
2023/10/09 08:47:52;;;;;;;18.15;4.32;;;21.50;24.60;;;;;;5082404;28;20208;-85
2023/10/09 08:50:21;;;;;;;18.73;4.35;;;21.90;23.30;;;;;;5079358;28;20201;-85
2023/10/09 08:52:48;;;;;;;15.60;3.78;;;22.00;23.20;;;;;;5083282;28;20654;-86
2023/10/09 08:55:16;;;;;;;16.02;4.55;;;22.00;21.90;;;;;;5083962;28;20203;-86
2023/10/09 08:57:44;;;;;;;23.90;4.28;;;22.00;22.80;;;;;;5088891;28;20232;-85
2023/10/09 09:00:21;;;;;;;16.40;4.63;;;21.90;22.90;;;;;;5083004;28;20199;-86
2023/10/09 09:02:49;;;;;;;16.30;4.38;;;21.70;23.00;;;;;;5079726;28;20223;-86
2023/10/09 09:05:21;;;;;;;16.05;4.38;;;21.60;24.00;;;;;;5089816;28;20220;-86
2023/10/09 09:07:48;;;;;;;17.52;3.95;;;21.60;23.60;;;;;;5086500;28;20204;-85
2023/10/09 09:10:20;;;;;;;14.65;3.70;;;21.50;24.30;;;;;;5088022;28;20666;-87
2023/10/09 09:12:47;;;;;;;12.68;4.10;;;21.50;24.80;;;;;;5087316;28;20295;-86
2023/10/09 09:15:20;;;;;;;22.13;4.45;;;21.50;24.10;;;;;;5104600;28;20197;-85
2023/10/09 09:17:48;;;;;;;19.42;4.25;;;21.60;23.20;;;;;;5094284;28;20759;-87
2023/10/09 09:20:30;;;;;;;17.55;4.78;;;21.80;21.80;;;;;;5076639;28;20255;-86
2023/10/09 09:22:57;;;;;;;19.73;4.70;;;21.70;23.20;;;;;;5086260;28;20219;-85
2023/10/09 09:25:26;;;;;;;16.23;4.03;;;21.70;24.40;;;;;;5084528;28;20197;-86
2023/10/09 09:27:54;;;;;;;17.55;4.45;;;21.70;24.50;;;;;;5081623;28;20203;-86
2023/10/09 09:30:31;;;;;;;13.35;3.97;;;21.70;23.20;;;;;;5115837;27;20193;-86
2023/10/09 09:35:42;;;;;;;20.00;4.20;;;22.10;22.00;;;;;;5077879;28;20284;-86
2023/10/09 09:38:17;;;;;;;14.38;4.40;;;22.30;21.80;;;;;;5088225;28;20246;-86
2023/10/09 09:40:44;;;;;;;20.65;4.57;;;22.40;20.10;;;;;;5083506;28;20196;-87
2023/10/09 09:43:21;;;;;;;19.38;4.57;;;22.50;20.60;;;;;;5078960;28;20689;-87
2023/10/09 09:45:49;;;;;;;13.90;3.97;;;22.50;21.10;;;;;;5077717;28;20542;-87
2023/10/09 09:48:16;;;;;;;17.70;3.97;;;22.60;20.20;;;;;;5086776;28;20228;-87
2023/10/09 09:50:47;;;;;;;23.23;4.63;;;22.80;19.40;;;;;;5086374;28;20220;-87
2023/10/09 09:53:17;;;;;;;16.13;4.40;;;22.80;20.00;;;;;;5089812;28;20193;-88
2023/10/09 09:55:52;;;;;;;17.52;4.45;;;22.60;20.00;;;;;;5086465;28;20293;-87
2023/10/09 09:58:20;;;;;;;37.75;5.40;;;22.60;19.50;;;;;;5079268;28;20215;-87
2023/10/09 10:00:52;;;;;;;15.85;4.30;;;22.50;20.40;;;;;;5079009;28;20205;-87
2023/10/09 10:03:23;;;;;;;22.35;4.45;;;22.50;19.00;;;;;;5089694;28;20268;-88
2023/10/09 10:05:52;;;;;;;21.38;4.63;;;22.40;20.00;;;;;;5084157;28;20216;-87
2023/10/09 10:08:21;;;;;;;27.33;4.57;;;22.40;20.50;;;;;;5082826;28;20198;-86
2023/10/09 10:10:50;;;;;;;17.75;4.25;;;22.40;19.90;;;;;;5083255;28;20193;-88
2023/10/09 10:13:27;;;;;;;24.42;4.18;;;22.40;19.80;;;;;;5082767;28;20220;-88
2023/10/09 10:16:09;;;;;;;22.85;4.35;;;22.40;19.40;;;;;;5086528;28;21483;-88
2023/10/09 10:18:59;;;;;;;26.55;4.65;;;22.40;18.80;;;;;;5080231;28;20728;-88
2023/10/09 10:21:42;;;;;;;18.80;4.20;;;22.70;18.30;;;;;;5084709;28;20197;-88
2023/10/09 10:24:52;;;;;;;16.42;4.13;;;22.70;18.10;;;;;;5087619;28;20551;-88
2023/10/09 10:27:26;;;;;;;18.13;3.92;;;22.90;18.30;;;;;;5094728;28;20197;-87
2023/10/09 10:30:30;;;;;;;18.48;4.18;;;23.10;17.50;;;;;;5085507;28;20204;-87
2023/10/09 10:33:09;;;;;;;27.70;4.57;;;23.30;17.50;;;;;;5087924;28;20205;-87
2023/10/09 10:35:45;;;;;;;24.00;4.93;;;23.60;15.10;;;;;;5093388;28;20343;-87
2023/10/09 10:38:34;;;;;;;22.20;5.03;;;23.50;15.80;;;;;;5092524;28;20605;-87
2023/10/09 10:41:12;;;;;;;17.85;4.70;;;23.50;15.90;;;;;;5072752;28;20196;-87
2023/10/09 10:43:54;;;;;;;25.55;4.88;;;23.40;15.50;;;;;;5086295;28;20220;-85
2023/10/09 10:46:30;;;;;;;25.42;5.43;;;23.60;15.20;;;;;;5087492;28;20228;-85
2023/10/09 10:49:00;;;;;;;17.00;4.80;;;23.50;14.80;;;;;;5091386;28;20736;-85
2023/10/09 10:51:35;;;;;;;19.27;5.75;;;23.40;14.00;;;;;;5073806;28;21777;-85
2023/10/09 10:56:49;;;;;;;18.75;4.65;;;23.40;14.00;;;;;;5105770;28;20200;-85
2023/10/09 10:59:22;;;;;;;25.10;5.40;;;23.20;14.90;;;;;;5086994;28;20849;-85
2023/10/09 11:02:07;;;;;;;16.95;4.70;;;23.20;14.50;;;;;;5084569;28;20303;-85
2023/10/09 11:04:41;;;;;;;23.33;5.15;;;23.20;15.00;;;;;;5087260;28;20227;-86
2023/10/09 11:07:12;;;;;;;21.27;4.53;;;23.20;14.60;;;;;;5084837;28;20677;-86
2023/10/09 11:10:07;;;;;;;20.52;5.10;;;23.20;13.90;;;;;;5088801;28;20211;-86
2023/10/09 11:12:55;;;;;;;20.05;4.35;;;23.20;13.00;;;;;;5090869;28;20205;-85
2023/10/09 11:15:37;;;;;;;22.80;4.93;;;23.10;14.60;;;;;;5078619;28;20284;-85
2023/10/09 11:18:09;;;;;;;22.30;4.35;;;23.10;15.30;;;;;;5085442;28;20246;-85
2023/10/09 11:20:37;;;;;;;23.27;4.70;;;23.10;14.50;;;;;;5092506;28;20205;-85
2023/10/09 11:23:15;;;;;;;23.35;4.95;;;23.20;14.60;;;;;;5097349;28;20220;-85
2023/10/09 11:25:52;;;;;;;21.33;4.97;;;23.40;15.60;;;;;;5084261;28;20562;-85
2023/10/09 11:28:42;;;;;;;24.45;5.10;;;23.80;13.90;;;;;;5083560;28;20200;-85
2023/10/09 11:31:11;;;;;;;21.52;5.25;;;24.00;13.60;;;;;;5085412;28;20288;-87
2023/10/09 11:33:45;;;;;;;17.30;4.50;;;24.40;13.80;;;;;;5084229;28;20203;-85
2023/10/09 11:36:11;;;;;;;26.77;5.72;;;24.70;14.00;;;;;;5091569;28;20287;-85
2023/10/09 11:38:39;;;;;;;21.92;5.40;;;24.90;11.40;;;;;;5082610;28;20193;-86
2023/10/09 11:41:24;;;;;;;27.45;5.50;;;24.70;12.10;;;;;;5092954;28;20200;-85
2023/10/09 11:43:51;;;;;;;25.05;5.68;;;24.60;11.60;;;;;;5079336;28;20263;-85
2023/10/09 11:49:44;;;;;;;30.67;5.70;;;24.40;11.20;;;;;;5083051;28;20283;-84
2023/10/09 11:54:51;;;;;;;27.27;5.65;;;24.50;11.80;;;;;;5086880;28;20199;-84
2023/10/09 11:57:19;;;;;;;25.23;5.82;;;24.50;11.60;;;;;;5080914;28;20203;-86
2023/10/09 11:59:52;;;;;;;21.85;5.82;;;24.60;12.10;;;;;;5086515;28;20200;-87
2023/10/09 12:02:21;;;;;;;30.25;6.45;;;24.50;11.20;;;;;;5083651;28;20212;-87
2023/10/09 12:04:48;;;;;;;24.65;5.28;;;24.30;10.30;;;;;;5082880;28;20292;-86
2023/10/09 12:07:16;;;;;;;36.20;6.50;;;24.00;10.60;;;;;;5086417;28;20205;-85
2023/10/09 12:09:42;;;;;;;28.33;5.60;;;23.80;11.70;;;;;;5086359;28;20204;-86
2023/10/09 12:12:10;;;;;;;32.95;6.30;;;23.80;11.10;;;;;;5085556;28;20682;-86
2023/10/09 12:14:39;;;;;;;25.38;6.10;;;23.80;10.50;;;;;;5082790;28;20201;-86
2023/10/09 12:17:07;;;;;;;21.13;5.45;;;23.70;12.00;;;;;;5092550;28;20197;-86
2023/10/09 12:19:35;;;;;;;24.90;6.00;;;23.90;11.70;;;;;;5091783;28;20193;-85
2023/10/09 12:22:03;;;;;;;26.98;5.40;;;23.90;12.20;;;;;;5084941;28;20203;-86
2023/10/09 12:24:31;;;;;;;24.95;7.60;;;23.80;11.50;;;;;;5086287;28;20224;-85
2023/10/09 12:26:58;;;;;;;27.42;6.22;;;23.70;11.00;;;;;;5084966;28;20200;-86
2023/10/09 12:29:29;;;;;;;23.95;5.63;;;23.60;10.80;;;;;;5086875;28;20197;-86
2023/10/09 12:31:59;;;;;;;25.25;6.07;;;23.50;11.50;;;;;;5087012;28;20283;-86
2023/10/09 12:34:27;;;;;;;22.05;5.43;;;23.40;11.90;;;;;;5089435;28;20200;-85
2023/10/09 12:36:54;;;;;;;32.90;6.50;;;23.30;13.10;;;;;;5083254;28;20220;-85
2023/10/09 12:39:21;;;;;;;27.40;5.97;;;23.20;13.00;;;;;;5077797;28;20656;-84
2023/10/09 12:41:48;;;;;;;20.88;5.93;;;23.20;13.00;;;;;;5087400;28;20210;-84
2023/10/09 12:44:18;;;;;;;28.92;6.03;;;23.10;11.80;;;;;;5087998;28;20243;-85
2023/10/09 12:46:51;;;;;;;28.13;9.95;;;23.00;12.90;;;;;;5083431;28;20193;-85
2023/10/09 12:49:24;;;;;;;26.20;5.80;;;22.90;12.80;;;;;;5084106;28;20204;-84
2023/10/09 12:51:51;;;;;;;23.00;6.00;;;22.80;12.80;;;;;;5079878;28;20270;-84
2023/10/09 12:54:20;;;;;;;16.92;5.90;;;22.80;12.80;;;;;;5086209;28;20197;-85
2023/10/09 12:56:49;;;;;;;24.98;5.93;;;22.60;12.70;;;;;;5084500;28;20208;-84
2023/10/09 12:59:18;;;;;;;21.70;5.60;;;22.50;12.60;;;;;;5088457;28;20226;-85
2023/10/09 13:01:44;;;;;;;31.13;7.35;;;22.40;12.50;;;;;;5076641;28;20222;-85
2023/10/09 13:04:13;;;;;;;26.83;6.40;;;22.40;12.50;;;;;;5083907;28;20234;-85
2023/10/09 13:06:43;;;;;;;29.10;6.03;;;22.30;12.40;;;;;;5083377;28;20200;-84
2023/10/09 13:09:11;;;;;;;20.30;5.65;;;22.30;12.50;;;;;;5085550;28;20204;-85
2023/10/09 13:11:39;;;;;;;27.52;6.50;;;22.10;13.40;;;;;;5083045;28;20205;-86
2023/10/09 13:14:11;;;;;;;26.52;6.20;;;22.10;13.90;;;;;;5084021;28;20256;-86
2023/10/09 13:16:38;;;;;;;21.95;5.68;;;22.20;13.70;;;;;;5080795;28;20200;-86
2023/10/09 13:19:09;;;;;;;28.13;6.32;;;22.20;14.50;;;;;;5088959;28;20212;-86
2023/10/09 13:21:40;;;;;;;24.65;6.80;;;22.20;14.10;;;;;;5080175;28;20201;-85
2023/10/09 13:24:12;;;;;;;26.40;7.90;;;22.10;14.70;;;;;;5084112;28;20262;-85
2023/10/09 13:26:40;;;;;;;27.77;6.18;;;22.10;14.20;;;;;;5090383;28;20238;-85
2023/10/09 13:29:09;;;;;;;27.35;5.70;;;22.10;14.70;;;;;;5083298;28;20658;-85
2023/10/09 13:31:38;;;;;;;20.50;5.50;;;22.00;15.30;;;;;;5077755;28;20204;-84
2023/10/09 13:34:06;;;;;;;22.45;5.60;;;21.90;15.50;;;;;;5082755;28;20716;-84
2023/10/09 13:36:34;;;;;;;28.40;5.47;;;21.90;15.50;;;;;;5080816;28;20553;-83
2023/10/09 13:39:20;;;;;;;26.92;5.20;;;21.90;15.40;;;;;;5084125;28;20646;-83
2023/10/09 13:41:49;;;;;;;22.17;5.32;;;21.80;15.90;;;;;;5090645;28;20528;-83
2023/10/09 13:44:17;;;;;;;19.42;4.40;;;21.70;16.60;;;;;;5079920;28;20231;-84
2023/10/09 13:46:44;;;;;;;21.10;5.47;;;21.70;17.30;;;;;;5115119;28;20304;-83
2023/10/09 13:49:13;;;;;;;14.57;5.30;;;21.60;16.60;;;;;;5075508;28;20286;-83
2023/10/09 13:51:43;;;;;;;26.40;5.30;;;21.60;16.20;;;;;;5086729;28;20299;-85
2023/10/09 13:54:18;;;;;;;28.67;5.90;;;21.50;16.30;;;;;;5088432;28;20618;-85
2023/10/09 13:56:45;;;;;;;25.35;8.68;;;21.30;17.00;;;;;;5080036;28;20277;-84
2023/10/09 13:59:13;;;;;;;21.33;5.43;;;21.20;17.70;;;;;;5078163;28;20189;-85
2023/10/09 14:01:47;;;;;;;22.95;6.28;;;21.10;17.40;;;;;;5081442;28;20661;-86
2023/10/09 14:04:18;;;;;;;23.92;5.47;;;21.20;18.60;;;;;;5087080;28;20220;-87
2023/10/09 14:06:46;;;;;;;23.52;5.40;;;21.00;21.10;;;;;;5075142;28;20200;-85
2023/10/09 14:09:27;;;;;;;26.23;5.68;;;20.80;23.90;;;;;;5086419;28;20196;-84
2023/10/09 14:12:05;;;;;;;24.10;4.88;;;20.60;25.90;;;;;;5083517;28;20715;-85
2023/10/09 14:14:37;;;;;;;23.85;5.43;;;20.40;27.30;;;;;;5085820;28;20243;-84